sensor_id;sensor_type;location;lat;lon;timestamp;pressure;altitude;pressure_sealevel;temperature;humidity
67818;BME280;54614;47.576;7.524;2022-12-10T00:01:21;97229.66;;;23.40;33.02
67818;BME280;54614;47.576;7.524;2022-12-10T00:03:47;97231.19;;;23.36;33.52
67818;BME280;54614;47.576;7.524;2022-12-10T00:06:23;97233.16;;;23.41;33.08
67818;BME280;54614;47.576;7.524;2022-12-10T00:08:50;97229.41;;;23.42;32.99
67818;BME280;54614;47.576;7.524;2022-12-10T00:11:18;97216.47;;;23.39;33.36
67818;BME280;54614;47.576;7.524;2022-12-10T00:13:46;97224.75;;;23.37;33.23
67818;BME280;54614;47.576;7.524;2022-12-10T00:16:16;97231.41;;;23.35;33.40
67818;BME280;54614;47.576;7.524;2022-12-10T00:18:42;97226.63;;;23.37;33.11
67818;BME280;54614;47.576;7.524;2022-12-10T00:21:13;97230.84;;;23.33;33.42
67818;BME280;54614;47.576;7.524;2022-12-10T00:23:40;97249.63;;;23.33;33.21
67818;BME280;54614;47.576;7.524;2022-12-10T00:26:13;97242.84;;;23.30;32.96
67818;BME280;54614;47.576;7.524;2022-12-10T00:28:41;97242.50;;;23.27;33.14
67818;BME280;54614;47.576;7.524;2022-12-10T00:31:21;97233.19;;;23.29;32.63
67818;BME280;54614;47.576;7.524;2022-12-10T00:33:48;97238.78;;;23.28;32.94
67818;BME280;54614;47.576;7.524;2022-12-10T00:36:24;97237.84;;;23.22;32.83
67818;BME280;54614;47.576;7.524;2022-12-10T00:38:51;97241.47;;;23.16;32.84
67818;BME280;54614;47.576;7.524;2022-12-10T00:41:17;97235.88;;;23.18;32.23
67818;BME280;54614;47.576;7.524;2022-12-10T00:43:44;97240.88;;;23.14;32.96
67818;BME280;54614;47.576;7.524;2022-12-10T00:46:13;97235.53;;;23.14;32.76
67818;BME280;54614;47.576;7.524;2022-12-10T00:48:39;97235.19;;;23.10;32.38
67818;BME280;54614;47.576;7.524;2022-12-10T00:51:20;97232.03;;;23.02;32.45
67818;BME280;54614;47.576;7.524;2022-12-10T00:53:48;97224.00;;;23.02;32.78
67818;BME280;54614;47.576;7.524;2022-12-10T00:56:18;97213.63;;;23.05;32.82
67818;BME280;54614;47.576;7.524;2022-12-10T00:58:45;97225.16;;;23.06;32.83
67818;BME280;54614;47.576;7.524;2022-12-10T01:04:07;97223.28;;;23.18;32.50
67818;BME280;54614;47.576;7.524;2022-12-10T01:07:01;97219.19;;;23.15;32.60
67818;BME280;54614;47.576;7.524;2022-12-10T01:09:30;97239.16;;;23.08;32.70
67818;BME280;54614;47.576;7.524;2022-12-10T01:12:00;97229.69;;;23.05;32.92
67818;BME280;54614;47.576;7.524;2022-12-10T01:14:31;97239.59;;;23.05;32.48
67818;BME280;54614;47.576;7.524;2022-12-10T01:17:02;97241.81;;;22.96;32.96
67818;BME280;54614;47.576;7.524;2022-12-10T01:19:29;97243.56;;;23.02;32.65
67818;BME280;54614;47.576;7.524;2022-12-10T01:21:56;97242.41;;;22.98;32.84
67818;BME280;54614;47.576;7.524;2022-12-10T01:24:26;97241.13;;;23.01;32.89
67818;BME280;54614;47.576;7.524;2022-12-10T01:26:52;97244.38;;;23.03;32.63
67818;BME280;54614;47.576;7.524;2022-12-10T01:29:20;97250.56;;;23.03;32.66
67818;BME280;54614;47.576;7.524;2022-12-10T01:31:51;97246.50;;;23.01;32.60
67818;BME280;54614;47.576;7.524;2022-12-10T01:34:17;97249.88;;;22.96;32.79
67818;BME280;54614;47.576;7.524;2022-12-10T01:36:47;97249.63;;;22.98;33.04
67818;BME280;54614;47.576;7.524;2022-12-10T01:39:16;97254.06;;;22.92;32.95
67818;BME280;54614;47.576;7.524;2022-12-10T01:41:49;97250.09;;;22.95;33.27
67818;BME280;54614;47.576;7.524;2022-12-10T01:46:47;97249.19;;;22.89;32.96
67818;BME280;54614;47.576;7.524;2022-12-10T01:49:22;97251.63;;;22.91;33.01
67818;BME280;54614;47.576;7.524;2022-12-10T01:51:55;97259.91;;;22.89;32.95
67818;BME280;54614;47.576;7.524;2022-12-10T01:54:30;97262.00;;;22.87;33.06
67818;BME280;54614;47.576;7.524;2022-12-10T01:57:05;97255.13;;;22.91;32.76
67818;BME280;54614;47.576;7.524;2022-12-10T01:59:35;97260.38;;;22.86;32.90
67818;BME280;54614;47.576;7.524;2022-12-10T02:02:44;97264.56;;;22.94;32.96
67818;BME280;54614;47.576;7.524;2022-12-10T02:05:28;97262.22;;;22.86;33.01
67818;BME280;54614;47.576;7.524;2022-12-10T02:08:26;97265.59;;;22.81;33.23
67818;BME280;54614;47.576;7.524;2022-12-10T02:13:57;97267.34;;;22.87;33.04
67818;BME280;54614;47.576;7.524;2022-12-10T02:16:43;97271.56;;;22.83;32.85
67818;BME280;54614;47.576;7.524;2022-12-10T02:19:21;97276.69;;;22.85;32.91
67818;BME280;54614;47.576;7.524;2022-12-10T02:21:52;97272.91;;;22.74;33.27
67818;BME280;54614;47.576;7.524;2022-12-10T02:24:28;97279.00;;;22.81;33.11
67818;BME280;54614;47.576;7.524;2022-12-10T02:30:09;97277.22;;;22.75;33.39
67818;BME280;54614;47.576;7.524;2022-12-10T02:32:40;97263.75;;;22.81;33.06
67818;BME280;54614;47.576;7.524;2022-12-10T02:35:32;97258.59;;;22.80;32.94
67818;BME280;54614;47.576;7.524;2022-12-10T02:38:36;97271.19;;;22.79;33.03
67818;BME280;54614;47.576;7.524;2022-12-10T02:41:09;97267.41;;;22.69;33.23
67818;BME280;54614;47.576;7.524;2022-12-10T02:43:38;97264.28;;;22.72;33.27
67818;BME280;54614;47.576;7.524;2022-12-10T02:46:05;97262.28;;;22.67;33.00
67818;BME280;54614;47.576;7.524;2022-12-10T02:48:33;97255.28;;;22.66;33.23
67818;BME280;54614;47.576;7.524;2022-12-10T02:51:00;97254.72;;;22.64;33.26
67818;BME280;54614;47.576;7.524;2022-12-10T02:53:26;97256.34;;;22.65;33.35
67818;BME280;54614;47.576;7.524;2022-12-10T03:01:59;97254.59;;;22.59;33.01
67818;BME280;54614;47.576;7.524;2022-12-10T03:04:46;97254.34;;;22.61;33.17
67818;BME280;54614;47.576;7.524;2022-12-10T03:07:44;97264.16;;;22.67;33.33
67818;BME280;54614;47.576;7.524;2022-12-10T03:13:17;97253.19;;;22.57;33.25
67818;BME280;54614;47.576;7.524;2022-12-10T03:15:48;97254.00;;;22.57;33.15
67818;BME280;54614;47.576;7.524;2022-12-10T03:18:19;97255.88;;;22.57;33.36
67818;BME280;54614;47.576;7.524;2022-12-10T03:20:50;97258.91;;;22.60;33.29
67818;BME280;54614;47.576;7.524;2022-12-10T03:23:19;97255.50;;;22.53;33.22
67818;BME280;54614;47.576;7.524;2022-12-10T03:25:48;97257.16;;;22.54;33.27
67818;BME280;54614;47.576;7.524;2022-12-10T03:28:19;97253.06;;;22.51;33.46
67818;BME280;54614;47.576;7.524;2022-12-10T03:30:48;97252.38;;;22.56;33.24
67818;BME280;54614;47.576;7.524;2022-12-10T03:33:16;97249.56;;;22.51;33.18
67818;BME280;54614;47.576;7.524;2022-12-10T03:35:43;97250.84;;;22.48;33.60
67818;BME280;54614;47.576;7.524;2022-12-10T03:38:10;97253.53;;;22.48;33.46
67818;BME280;54614;47.576;7.524;2022-12-10T03:40:36;97255.38;;;22.48;33.56
67818;BME280;54614;47.576;7.524;2022-12-10T03:43:01;97252.34;;;22.44;33.51
67818;BME280;54614;47.576;7.524;2022-12-10T03:45:27;97251.88;;;22.47;33.40
67818;BME280;54614;47.576;7.524;2022-12-10T03:47:53;97244.31;;;22.44;33.66
67818;BME280;54614;47.576;7.524;2022-12-10T03:50:19;97246.16;;;22.44;33.63
67818;BME280;54614;47.576;7.524;2022-12-10T03:52:45;97238.81;;;22.39;33.66
67818;BME280;54614;47.576;7.524;2022-12-10T03:55:11;97241.97;;;22.36;33.51
67818;BME280;54614;47.576;7.524;2022-12-10T03:57:37;97256.41;;;22.35;33.63
67818;BME280;54614;47.576;7.524;2022-12-10T04:00:05;97241.50;;;22.39;33.54
67818;BME280;54614;47.576;7.524;2022-12-10T04:02:32;97253.72;;;22.35;33.63
67818;BME280;54614;47.576;7.524;2022-12-10T04:04:58;97251.16;;;22.40;33.69
67818;BME280;54614;47.576;7.524;2022-12-10T04:07:24;97245.81;;;22.40;33.68
67818;BME280;54614;47.576;7.524;2022-12-10T04:09:49;97240.91;;;22.37;33.57
67818;BME280;54614;47.576;7.524;2022-12-10T04:12:15;97250.22;;;22.35;33.43
67818;BME280;54614;47.576;7.524;2022-12-10T04:14:41;97243.13;;;22.40;33.32
67818;BME280;54614;47.576;7.524;2022-12-10T04:17:26;97251.63;;;22.37;33.24
67818;BME280;54614;47.576;7.524;2022-12-10T04:19:51;97250.22;;;22.35;33.73
67818;BME280;54614;47.576;7.524;2022-12-10T04:22:17;97248.81;;;22.32;33.59
67818;BME280;54614;47.576;7.524;2022-12-10T04:25:19;97261.84;;;22.29;33.58
67818;BME280;54614;47.576;7.524;2022-12-10T04:28:03;97269.22;;;22.33;33.36
67818;BME280;54614;47.576;7.524;2022-12-10T04:30:29;97270.72;;;22.29;33.78
67818;BME280;54614;47.576;7.524;2022-12-10T04:32:55;97268.03;;;22.29;33.51
67818;BME280;54614;47.576;7.524;2022-12-10T04:35:20;97270.94;;;22.28;33.58
67818;BME280;54614;47.576;7.524;2022-12-10T04:37:46;97273.84;;;22.26;33.73
67818;BME280;54614;47.576;7.524;2022-12-10T04:40:12;97272.56;;;22.29;33.53
67818;BME280;54614;47.576;7.524;2022-12-10T04:42:38;97275.84;;;22.31;33.79
67818;BME280;54614;47.576;7.524;2022-12-10T04:45:05;97276.28;;;22.28;33.71
67818;BME280;54614;47.576;7.524;2022-12-10T04:47:30;97279.19;;;22.26;33.89
67818;BME280;54614;47.576;7.524;2022-12-10T04:49:56;97280.13;;;22.20;33.87
67818;BME280;54614;47.576;7.524;2022-12-10T04:52:22;97274.25;;;22.11;34.08
67818;BME280;54614;47.576;7.524;2022-12-10T04:54:48;97269.75;;;22.24;33.88
67818;BME280;54614;47.576;7.524;2022-12-10T04:57:14;97268.63;;;22.31;33.76
67818;BME280;54614;47.576;7.524;2022-12-10T04:59:40;97265.84;;;22.38;33.87
67818;BME280;54614;47.576;7.524;2022-12-10T05:02:06;97260.13;;;22.34;33.77
67818;BME280;54614;47.576;7.524;2022-12-10T05:04:32;97265.13;;;22.31;33.89
67818;BME280;54614;47.576;7.524;2022-12-10T05:06:58;97280.25;;;22.25;33.92
67818;BME280;54614;47.576;7.524;2022-12-10T05:09:24;97279.66;;;22.23;34.06
67818;BME280;54614;47.576;7.524;2022-12-10T05:11:50;97275.94;;;22.24;33.81
67818;BME280;54614;47.576;7.524;2022-12-10T05:14:18;97282.56;;;22.22;33.73
67818;BME280;54614;47.576;7.524;2022-12-10T05:16:44;97282.34;;;22.23;33.71
67818;BME280;54614;47.576;7.524;2022-12-10T05:19:10;97270.22;;;22.21;33.72
67818;BME280;54614;47.576;7.524;2022-12-10T05:21:36;97280.34;;;22.18;33.79
67818;BME280;54614;47.576;7.524;2022-12-10T05:24:21;97284.28;;;22.16;34.19
67818;BME280;54614;47.576;7.524;2022-12-10T05:26:47;97288.81;;;22.15;34.00
67818;BME280;54614;47.576;7.524;2022-12-10T05:29:17;97290.81;;;22.20;33.59
67818;BME280;54614;47.576;7.524;2022-12-10T05:31:43;97293.38;;;22.15;33.70
67818;BME280;54614;47.576;7.524;2022-12-10T05:34:10;97299.09;;;22.18;33.86
67818;BME280;54614;47.576;7.524;2022-12-10T05:36:37;97300.84;;;22.25;33.73
67818;BME280;54614;47.576;7.524;2022-12-10T05:39:03;97298.09;;;22.31;33.43
67818;BME280;54614;47.576;7.524;2022-12-10T05:41:33;97301.09;;;22.23;33.80
67818;BME280;54614;47.576;7.524;2022-12-10T05:43:59;97312.03;;;22.22;33.64
67818;BME280;54614;47.576;7.524;2022-12-10T05:46:29;97305.75;;;22.28;33.86
67818;BME280;54614;47.576;7.524;2022-12-10T05:48:56;97307.47;;;22.22;33.72
67818;BME280;54614;47.576;7.524;2022-12-10T05:51:26;97305.16;;;22.26;33.49
67818;BME280;54614;47.576;7.524;2022-12-10T05:53:53;97308.53;;;22.21;33.36
67818;BME280;54614;47.576;7.524;2022-12-10T05:56:23;97304.81;;;22.22;33.65
67818;BME280;54614;47.576;7.524;2022-12-10T05:58:53;97317.38;;;22.22;33.56
67818;BME280;54614;47.576;7.524;2022-12-10T06:01:27;97319.16;;;22.28;33.50
67818;BME280;54614;47.576;7.524;2022-12-10T06:03:54;97320.47;;;22.37;33.35
67818;BME280;54614;47.576;7.524;2022-12-10T06:06:23;97323.28;;;22.42;33.17
67818;BME280;54614;47.576;7.524;2022-12-10T06:08:50;97328.03;;;22.40;33.24
67818;BME280;54614;47.576;7.524;2022-12-10T06:11:16;97329.78;;;22.34;33.66
67818;BME280;54614;47.576;7.524;2022-12-10T06:13:42;97329.78;;;22.34;33.95
67818;BME280;54614;47.576;7.524;2022-12-10T06:16:11;97332.78;;;22.26;34.25
67818;BME280;54614;47.576;7.524;2022-12-10T06:18:38;97338.25;;;22.31;34.25
67818;BME280;54614;47.576;7.524;2022-12-10T06:21:07;97331.78;;;22.39;34.62
67818;BME280;54614;47.576;7.524;2022-12-10T06:23:35;97335.84;;;22.41;34.50
67818;BME280;54614;47.576;7.524;2022-12-10T06:26:19;97342.66;;;22.56;34.13
67818;BME280;54614;47.576;7.524;2022-12-10T06:28:47;97348.25;;;22.54;34.29
67818;BME280;54614;47.576;7.524;2022-12-10T06:31:13;97355.47;;;22.54;34.58
67818;BME280;54614;47.576;7.524;2022-12-10T06:33:40;97357.47;;;22.58;35.15
67818;BME280;54614;47.576;7.524;2022-12-10T06:36:08;97355.88;;;22.69;35.68
67818;BME280;54614;47.576;7.524;2022-12-10T06:38:36;97362.88;;;22.70;35.78
67818;BME280;54614;47.576;7.524;2022-12-10T06:41:08;97365.28;;;22.90;36.25
67818;BME280;54614;47.576;7.524;2022-12-10T06:43:35;97371.13;;;22.98;35.75
67818;BME280;54614;47.576;7.524;2022-12-10T06:46:13;97360.50;;;22.92;36.04
67818;BME280;54614;47.576;7.524;2022-12-10T06:48:41;97372.88;;;22.93;36.28
67818;BME280;54614;47.576;7.524;2022-12-10T06:51:08;97378.81;;;22.95;36.11
67818;BME280;54614;47.576;7.524;2022-12-10T06:53:36;97373.34;;;23.01;36.18
67818;BME280;54614;47.576;7.524;2022-12-10T06:56:04;97378.59;;;23.08;36.63
67818;BME280;54614;47.576;7.524;2022-12-10T06:58:33;97390.63;;;23.17;36.69
67818;BME280;54614;47.576;7.524;2022-12-10T07:01:09;97390.16;;;23.20;36.72
67818;BME280;54614;47.576;7.524;2022-12-10T07:03:35;97395.41;;;23.27;36.25
67818;BME280;54614;47.576;7.524;2022-12-10T07:06:03;97399.16;;;23.26;36.64
67818;BME280;54614;47.576;7.524;2022-12-10T07:08:29;97397.31;;;23.38;36.50
67818;BME280;54614;47.576;7.524;2022-12-10T07:10:56;97394.84;;;23.36;36.32
67818;BME280;54614;47.576;7.524;2022-12-10T07:13:23;97397.66;;;23.41;36.30
67818;BME280;54614;47.576;7.524;2022-12-10T07:15:49;97401.16;;;23.54;36.40
67818;BME280;54614;47.576;7.524;2022-12-10T07:18:15;97403.06;;;23.65;37.49
67818;BME280;54614;47.576;7.524;2022-12-10T07:20:41;97407.38;;;23.66;35.64
67818;BME280;54614;47.576;7.524;2022-12-10T07:23:07;97406.44;;;23.60;36.33
67818;BME280;54614;47.576;7.524;2022-12-10T07:25:33;97412.28;;;23.57;35.05
67818;BME280;54614;47.576;7.524;2022-12-10T07:27:59;97407.84;;;23.63;35.26
67818;BME280;54614;47.576;7.524;2022-12-10T07:30:25;97410.88;;;23.55;35.34
67818;BME280;54614;47.576;7.524;2022-12-10T07:32:51;97405.13;;;23.51;35.13
67818;BME280;54614;47.576;7.524;2022-12-10T07:35:17;97418.13;;;23.54;34.92
67818;BME280;54614;47.576;7.524;2022-12-10T07:37:42;97419.03;;;23.60;35.81
67818;BME280;54614;47.576;7.524;2022-12-10T07:40:09;97425.94;;;23.67;35.83
67818;BME280;54614;47.576;7.524;2022-12-10T07:42:35;97417.19;;;23.72;36.33
67818;BME280;54614;47.576;7.524;2022-12-10T07:45:01;97423.38;;;23.61;35.89
67818;BME280;54614;47.576;7.524;2022-12-10T07:47:30;97431.63;;;23.94;41.02
67818;BME280;54614;47.576;7.524;2022-12-10T07:49:55;97430.22;;;24.03;40.55
67818;BME280;54614;47.576;7.524;2022-12-10T07:52:21;97430.91;;;24.10;39.53
67818;BME280;54614;47.576;7.524;2022-12-10T07:54:47;97446.44;;;24.20;39.82
67818;BME280;54614;47.576;7.524;2022-12-10T07:57:13;97444.22;;;24.17;38.88
67818;BME280;54614;47.576;7.524;2022-12-10T07:59:39;97441.06;;;24.32;38.58
67818;BME280;54614;47.576;7.524;2022-12-10T08:02:05;97444.31;;;24.22;37.05
67818;BME280;54614;47.576;7.524;2022-12-10T08:04:31;97451.47;;;24.28;37.40
67818;BME280;54614;47.576;7.524;2022-12-10T08:06:57;97450.19;;;24.31;36.58
67818;BME280;54614;47.576;7.524;2022-12-10T08:09:23;97451.81;;;24.32;36.75
67818;BME280;54614;47.576;7.524;2022-12-10T08:11:48;97462.09;;;24.35;35.99
67818;BME280;54614;47.576;7.524;2022-12-10T08:14:14;97467.22;;;24.36;35.86
67818;BME280;54614;47.576;7.524;2022-12-10T08:16:40;97466.88;;;24.33;35.12
67818;BME280;54614;47.576;7.524;2022-12-10T08:19:06;97473.66;;;24.35;35.11
67818;BME280;54614;47.576;7.524;2022-12-10T08:21:32;97471.78;;;24.36;35.03
67818;BME280;54614;47.576;7.524;2022-12-10T08:23:59;97475.53;;;24.35;34.77
67818;BME280;54614;47.576;7.524;2022-12-10T08:26:30;97470.50;;;24.38;34.32
67818;BME280;54614;47.576;7.524;2022-12-10T08:28:56;97474.59;;;24.41;34.23
67818;BME280;54614;47.576;7.524;2022-12-10T08:31:25;97479.47;;;24.44;34.11
67818;BME280;54614;47.576;7.524;2022-12-10T08:33:52;97485.91;;;24.43;34.35
67818;BME280;54614;47.576;7.524;2022-12-10T08:36:19;97479.72;;;24.42;34.05
67818;BME280;54614;47.576;7.524;2022-12-10T08:38:45;97481.94;;;24.46;33.47
67818;BME280;54614;47.576;7.524;2022-12-10T08:41:19;97488.84;;;24.41;33.64
67818;BME280;54614;47.576;7.524;2022-12-10T08:43:46;97486.03;;;24.48;33.39
67818;BME280;54614;47.576;7.524;2022-12-10T08:46:14;97478.19;;;24.47;33.35
67818;BME280;54614;47.576;7.524;2022-12-10T08:48:41;97485.06;;;24.54;33.21
67818;BME280;54614;47.576;7.524;2022-12-10T08:51:10;97488.94;;;24.47;33.36
67818;BME280;54614;47.576;7.524;2022-12-10T08:53:36;97491.16;;;24.50;33.28
67818;BME280;54614;47.576;7.524;2022-12-10T08:56:02;97501.09;;;24.49;33.14
67818;BME280;54614;47.576;7.524;2022-12-10T08:58:28;97507.88;;;24.52;33.36
67818;BME280;54614;47.576;7.524;2022-12-10T09:00:54;97511.38;;;24.52;33.24
67818;BME280;54614;47.576;7.524;2022-12-10T09:03:21;97495.13;;;24.47;33.24
67818;BME280;54614;47.576;7.524;2022-12-10T09:05:46;97502.97;;;24.49;33.17
67818;BME280;54614;47.576;7.524;2022-12-10T09:08:13;97510.09;;;24.55;32.94
67818;BME280;54614;47.576;7.524;2022-12-10T09:10:40;97522.38;;;24.51;33.01
67818;BME280;54614;47.576;7.524;2022-12-10T09:13:06;97526.44;;;24.53;32.79
67818;BME280;54614;47.576;7.524;2022-12-10T09:15:32;97530.44;;;24.51;33.01
67818;BME280;54614;47.576;7.524;2022-12-10T09:17:59;97528.44;;;24.46;32.93
67818;BME280;54614;47.576;7.524;2022-12-10T09:20:25;97533.25;;;24.44;33.01
67818;BME280;54614;47.576;7.524;2022-12-10T09:22:51;97540.59;;;24.49;32.95
67818;BME280;54614;47.576;7.524;2022-12-10T09:25:17;97531.38;;;24.45;33.13
67818;BME280;54614;47.576;7.524;2022-12-10T09:27:45;97534.41;;;24.48;33.00
67818;BME280;54614;47.576;7.524;2022-12-10T09:30:11;97542.94;;;24.45;33.01
67818;BME280;54614;47.576;7.524;2022-12-10T09:32:37;97539.19;;;24.46;32.73
67818;BME280;54614;47.576;7.524;2022-12-10T09:35:03;97554.72;;;24.56;33.09
67818;BME280;54614;47.576;7.524;2022-12-10T09:37:29;97541.19;;;24.39;32.90
67818;BME280;54614;47.576;7.524;2022-12-10T09:39:55;97550.31;;;24.38;32.68
67818;BME280;54614;47.576;7.524;2022-12-10T09:42:49;97551.34;;;24.49;32.30
67818;BME280;54614;47.576;7.524;2022-12-10T09:45:40;97546.44;;;24.46;32.54
67818;BME280;54614;47.576;7.524;2022-12-10T09:51:21;97545.28;;;24.41;32.59
67818;BME280;54614;47.576;7.524;2022-12-10T09:53:52;97550.31;;;24.38;32.96
67818;BME280;54614;47.576;7.524;2022-12-10T09:56:33;97547.97;;;24.41;32.68
67818;BME280;54614;47.576;7.524;2022-12-10T09:59:13;97548.91;;;24.35;33.05
67818;BME280;54614;47.576;7.524;2022-12-10T10:01:42;97551.00;;;24.33;33.04
67818;BME280;54614;47.576;7.524;2022-12-10T10:04:09;97538.97;;;24.36;33.19
67818;BME280;54614;47.576;7.524;2022-12-10T10:06:36;97541.19;;;24.39;33.09
67818;BME280;54614;47.576;7.524;2022-12-10T10:09:04;97550.91;;;24.28;33.25
67818;BME280;54614;47.576;7.524;2022-12-10T10:11:34;97559.44;;;24.37;33.50
67818;BME280;54614;47.576;7.524;2022-12-10T10:14:14;97543.53;;;24.35;33.37
67818;BME280;54614;47.576;7.524;2022-12-10T10:17:01;97549.50;;;24.37;33.29
67818;BME280;54614;47.576;7.524;2022-12-10T10:19:31;97550.31;;;24.38;33.52
67818;BME280;54614;47.576;7.524;2022-12-10T10:22:00;97548.22;;;24.40;33.73
67818;BME280;54614;47.576;7.524;2022-12-10T10:24:36;97545.16;;;24.36;33.70
67818;BME280;54614;47.576;7.524;2022-12-10T10:27:26;97555.81;;;24.31;33.63
67818;BME280;54614;47.576;7.524;2022-12-10T10:29:57;97552.06;;;24.32;33.73
67818;BME280;54614;47.576;7.524;2022-12-10T10:35:34;97545.63;;;24.33;33.68
67818;BME280;54614;47.576;7.524;2022-12-10T10:38:17;97551.25;;;24.32;33.57
67818;BME280;54614;47.576;7.524;2022-12-10T10:40:49;97545.38;;;24.23;34.04
67818;BME280;54614;47.576;7.524;2022-12-10T10:43:25;97548.53;;;24.20;33.91
67818;BME280;54614;47.576;7.524;2022-12-10T10:48:40;97550.63;;;24.18;33.99
67818;BME280;54614;47.576;7.524;2022-12-10T10:53:43;97546.91;;;24.19;33.98
67818;BME280;54614;47.576;7.524;2022-12-10T10:56:19;97552.63;;;24.23;33.46
67818;BME280;54614;47.576;7.524;2022-12-10T11:01:24;97559.88;;;24.22;33.02
67818;BME280;54614;47.576;7.524;2022-12-10T11:03:57;97555.66;;;24.15;33.24
67818;BME280;54614;47.576;7.524;2022-12-10T11:06:24;97551.91;;;24.16;32.91
67818;BME280;54614;47.576;7.524;2022-12-10T11:08:57;97562.19;;;24.19;32.92
67818;BME280;54614;47.576;7.524;2022-12-10T11:11:42;97560.34;;;24.19;33.14
67818;BME280;54614;47.576;7.524;2022-12-10T11:14:46;97564.66;;;24.20;32.99
67818;BME280;54614;47.576;7.524;2022-12-10T11:22:33;97564.19;;;24.11;33.56
67818;BME280;54614;47.576;7.524;2022-12-10T11:25:00;97577.03;;;24.09;33.62
67818;BME280;54614;47.576;7.524;2022-12-10T11:28:00;97573.88;;;24.13;34.34
67818;BME280;54614;47.576;7.524;2022-12-10T11:30:38;97575.16;;;24.10;34.32
67818;BME280;54614;47.576;7.524;2022-12-10T11:33:29;97578.19;;;24.14;34.66
67818;BME280;54614;47.576;7.524;2022-12-10T11:41:50;97579.03;;;24.14;34.55
67818;BME280;54614;47.576;7.524;2022-12-10T11:47:46;97583.34;;;24.15;34.57
67818;BME280;54614;47.576;7.524;2022-12-10T11:56:40;97593.75;;;24.23;34.71
67818;BME280;54614;47.576;7.524;2022-12-10T12:17:04;97614.34;;;24.29;34.27
67818;BME280;54614;47.576;7.524;2022-12-10T12:19:45;97614.22;;;24.36;34.28
67818;BME280;54614;47.576;7.524;2022-12-10T12:22:29;97614.09;;;24.31;34.13
67818;BME280;54614;47.576;7.524;2022-12-10T12:25:20;97622.28;;;24.36;34.10
67818;BME280;54614;47.576;7.524;2022-12-10T12:27:55;97621.00;;;24.27;34.30
67818;BME280;54614;47.576;7.524;2022-12-10T12:30:23;97612.13;;;24.26;34.27
67818;BME280;54614;47.576;7.524;2022-12-10T12:35:52;97627.19;;;24.39;33.77
67818;BME280;54614;47.576;7.524;2022-12-10T12:38:42;97626.84;;;24.35;33.97
67818;BME280;54614;47.576;7.524;2022-12-10T12:41:40;97630.59;;;24.34;33.89
67818;BME280;54614;47.576;7.524;2022-12-10T12:44:24;97632.34;;;24.29;33.52
67818;BME280;54614;47.576;7.524;2022-12-10T12:47:00;97633.81;;;24.25;33.61
67818;BME280;54614;47.576;7.524;2022-12-10T12:49:36;97634.63;;;24.25;33.72
67818;BME280;54614;47.576;7.524;2022-12-10T12:55:01;97642.34;;;24.22;33.56
67818;BME280;54614;47.576;7.524;2022-12-10T12:57:36;97642.34;;;24.22;33.55
67818;BME280;54614;47.576;7.524;2022-12-10T13:00:12;97641.91;;;24.36;33.26
67818;BME280;54614;47.576;7.524;2022-12-10T13:05:50;97639.28;;;24.06;33.77
67818;BME280;54614;47.576;7.524;2022-12-10T13:08:25;97649.50;;;24.28;33.68
67818;BME280;54614;47.576;7.524;2022-12-10T13:42:44;97673.84;;;24.03;33.57
67818;BME280;54614;47.576;7.524;2022-12-10T13:45:35;97677.00;;;24.00;33.92
67818;BME280;54614;47.576;7.524;2022-12-10T13:48:28;97684.81;;;24.01;33.70
67818;BME280;54614;47.576;7.524;2022-12-10T13:51:17;97682.13;;;24.01;34.01
67818;BME280;54614;47.576;7.524;2022-12-10T13:53:59;97684.47;;;23.98;34.07
67818;BME280;54614;47.576;7.524;2022-12-10T13:56:39;97690.97;;;23.90;33.80
67818;BME280;54614;47.576;7.524;2022-12-10T14:08:14;97701.94;;;23.89;33.96
67818;BME280;54614;47.576;7.524;2022-12-10T14:10:42;97716.19;;;23.89;34.12
67818;BME280;54614;47.576;7.524;2022-12-10T14:13:13;97722.16;;;23.91;33.93
67818;BME280;54614;47.576;7.524;2022-12-10T14:15:54;97714.47;;;23.95;33.69
67818;BME280;54614;47.576;7.524;2022-12-10T14:18:22;97724.63;;;23.93;33.43
67818;BME280;54614;47.576;7.524;2022-12-10T14:20:53;97728.72;;;23.95;33.65
67818;BME280;54614;47.576;7.524;2022-12-10T14:23:31;97722.66;;;24.00;33.28
67818;BME280;54614;47.576;7.524;2022-12-10T14:26:32;97733.16;;;24.01;33.07
67818;BME280;54614;47.576;7.524;2022-12-10T14:29:17;97735.41;;;24.04;33.08
67818;BME280;54614;47.576;7.524;2022-12-10T14:31:48;97731.31;;;24.02;33.25
67818;BME280;54614;47.576;7.524;2022-12-10T14:34:20;97736.19;;;23.93;34.01
67818;BME280;54614;47.576;7.524;2022-12-10T14:36:50;97736.41;;;23.92;33.79
67818;BME280;54614;47.576;7.524;2022-12-10T14:39:30;97742.22;;;23.89;33.88
67818;BME280;54614;47.576;7.524;2022-12-10T14:42:04;97750.44;;;23.94;34.02
67818;BME280;54614;47.576;7.524;2022-12-10T14:44:35;97750.09;;;24.02;33.81
67818;BME280;54614;47.576;7.524;2022-12-10T14:47:13;97746.06;;;24.11;33.76
67818;BME280;54614;47.576;7.524;2022-12-10T14:49:44;97748.59;;;24.06;33.49
67818;BME280;54614;47.576;7.524;2022-12-10T14:54:44;97751.75;;;24.03;32.93
67818;BME280;54614;47.576;7.524;2022-12-10T14:57:24;97760.41;;;24.05;33.19
67818;BME280;54614;47.576;7.524;2022-12-10T15:00:12;97750.47;;;24.05;33.09
67818;BME280;54614;47.576;7.524;2022-12-10T15:02:45;97754.53;;;23.96;32.98
67818;BME280;54614;47.576;7.524;2022-12-10T15:05:24;97760.03;;;24.01;32.78
67818;BME280;54614;47.576;7.524;2022-12-10T15:08:14;97755.94;;;23.99;32.78
67818;BME280;54614;47.576;7.524;2022-12-10T15:10:45;97758.84;;;23.97;33.19
67818;BME280;54614;47.576;7.524;2022-12-10T15:13:40;97764.59;;;24.01;32.97
67818;BME280;54614;47.576;7.524;2022-12-10T15:16:27;97769.38;;;23.99;32.88
67818;BME280;54614;47.576;7.524;2022-12-10T15:19:05;97765.03;;;23.98;32.96
67818;BME280;54614;47.576;7.524;2022-12-10T15:21:31;97767.94;;;23.96;32.92
67818;BME280;54614;47.576;7.524;2022-12-10T15:24:26;97769.38;;;23.99;33.03
67818;BME280;54614;47.576;7.524;2022-12-10T15:26:53;97773.56;;;23.95;32.70
67818;BME280;54614;47.576;7.524;2022-12-10T15:31:49;97774.75;;;23.99;32.79